LFSDLFGJ

Guest
Details From LFSD - Dijon Longvic AB
To LFGJ - Dole Tavaux
Flight Number -
Tags generated
Created
Modified
Stats Distance 20 nm / 36 km
Max Altitude 100 ft / 30 m
Waypoints 3
Social Downloads 6
Likes 0
Share

Download

Looking for another format? Having issues loading an existing format? Contact us
Advertisement - Login to hide

Notes

Basic altitude profile: - Ascent Rate: 2500ft/min - Ascent Speed: 250kts - Cruise Altitude: 25000ft - Cruise Speed: 400kts - Descent Rate: 1500ft/min - Descent Speed: 250kts Options: - Use NATs: yes - Use PACOTS: yes - Use low airways: yes - Use high airways: yes

Route

LFSD DJL LFGJ

ID Type Via Altitude (ft/m) Position (lat/lon) Dist (leg/tot) Name
O LFSD APT - 0 / 0 47.26901 / 5.09012 - / 0 nm Dijon Longvic AB
DJL VOR - 100 / 30 47.27078 / 5.09733 0 / 0 nm DIJON-LONGVIC VOR-DME
O LFGJ APT - 0 / 0 47.03893 / 5.42727 19 / 19 nm Dole Tavaux

Altitude Profile

Advertisement - Login to hide

LFSD

Details ICAO LFSD (DIJ)
Name Dijon Longvic AB
Region France
Timezone Europe/Paris (UTC+1.0)
Stats Elevation 726 ft / 221 m (AMSL)
Location 47.269000° 5.090120°
Runways 2
Magnetic Variation 1.808° E

METAR

LFSD 300330Z AUTO 20007KT 9999 OVC034 12/12 Q1025

Decode

TAF

Not found

Departure Runways

ID Width Length Bearing (true/mag) Surface Threshold Overrun Markings Lighting
02 118 ft / 36 m 6,054 ft / 1,845 m 15.20° / 13.39° ASPHALT 0 ft / 0 m 328 ft / 100 m APP EDGE THRESHOLD
18 148 ft / 45 m 7,877 ft / 2,401 m 175.00° / 173.19° ASPHALT 0 ft / 0 m 1,385 ft / 422 m PREC-APP EDGE THRESHOLD REIL-OMNI
20 118 ft / 36 m 6,054 ft / 1,845 m 195.20° / 193.40° ASPHALT 0 ft / 0 m 443 ft / 135 m APP EDGE THRESHOLD
36 148 ft / 45 m 7,877 ft / 2,401 m 355.00° / 353.19° ASPHALT 0 ft / 0 m 1,099 ft / 335 m PREC-APP EDGE THRESHOLD REIL-OMNI

LFGJ

Details ICAO LFGJ (DLE)
Name Dole Tavaux
Region France
Timezone Europe/Paris (UTC+1.0)
Stats Elevation 645 ft / 197 m (AMSL)
Location 47.038900° 5.427260°
Runways 1
Magnetic Variation 1.901° E

METAR

LFGJ 300330Z AUTO 20005KT 9999 OVC036 12/11 Q1026

Decode

TAF

Not found

Destination Runways

ID Width Length Bearing (true/mag) Surface Threshold Overrun Markings Lighting
05 148 ft / 45 m 7,306 ft / 2,227 m 54.25° / 52.35° ASPHALT 0 ft / 0 m 0 ft / 0 m PREC-APP EDGE THRESHOLD REIL-OMNI
23 148 ft / 45 m 7,306 ft / 2,227 m 234.27° / 232.37° ASPHALT 0 ft / 0 m 1,214 ft / 370 m PREC-APP EDGE THRESHOLD REIL-OMNI

Approach Navaids

Runway Type Ident Frequency Range Bearing (true/mag) Slope Elevation
05 DME DO 109.35 MHz 18 nm / 33 km - - 690 ft / 210 m (AMSL)
23 LOC-ILS DO 109.70 MHz 18 nm / 33 km 234.34° / 232.44 ° - 643 ft / 196 m (AMSL)
23 GS DO 109.70 MHz 10 nm / 19 km 234.52° / 232.62 ° 3.00° 643 ft / 196 m (AMSL)